Algowood — VCTD — position and weather

sailwx.info

Track history (hours):
 
Tides and Currents Weather Stations Pressure Air Temp Water Temp Dewpoint Dewpoint Depression Visibility Wind Speed Wind Dir Waves Ship Positions

Algowood

Last reported at 2014-Jul-26 15:23 UTC. Time now 2014-Jul-30 09:10 UTC.
Position N 45°59' W 083°53'.

Length 223 m; draft 8.1 m.

Type: Cargo ship. MMSI: 316001802.

Date/timePositionNaut miles runAvg speedWind from/ knotsBaromVisibWave heightAir tempDewpointWater temp
2014-Jul-26 15:23N 45°59' W 083°53'262 6.7
2014-Jul-25 00:16N 42°25' W 080°21'811.7
2014-Jul-24 23:33N 42°28' W 080°11'1211.6
2014-Jul-24 22:31N 42°33' W 079°56'47 1.1
2014-Jul-23 02:20N 43°07' W 079°12'16 2.6
2014-Jul-22 20:14N 42°52' W 079°15'710.0
2014-Jul-22 19:30N 42°46' W 079°22'1011.0
2014-Jul-22 18:33N 42°40' W 079°33'1111.1
2014-Jul-22 17:33N 42°33' W 079°46'1111.1
2014-Jul-22 16:32N 42°27' W 079°58'1110.9
2014-Jul-22 15:33N 42°23' W 080°12'1111.1
2014-Jul-22 14:33N 42°19' W 080°26'1111.0
2014-Jul-22 13:33N 42°16' W 080°40'2511.1
2014-Jul-22 11:16N 42°08' W 081°12'5611.2
2014-Jul-22 06:18N 41°50' W 082°23'226 8.7
2014-Jul-21 04:13N 45°32' W 083°21'1111.0
2014-Jul-21 03:10N 45°40' W 083°32'711.0
2014-Jul-21 02:32N 45°45' W 083°39'1111.0
2014-Jul-21 01:33N 45°53' W 083°49'10 9.8
2014-Jul-21 00:33N 46°02' W 083°56'11 9.3
2014-Jul-20 23:25N 46°10' W 084°05'  
Track history (hours):
 
Tides and Currents Weather Stations Pressure Air Temp Water Temp Dewpoint Dewpoint Depression Visibility Wind Speed Wind Dir Waves Ship Positions

Algowood

Last reported at 2014-Jul-26 15:23 UTC. Time now 2014-Jul-30 09:10 UTC.
Position N 45°59' W 083°53'.

Length 223 m; draft 8.1 m.

Type: Cargo ship. MMSI: 316001802.

Date/timePositionNaut miles runAvg speedWind from/ knotsBaromVisibWave heightAir tempDewpointWater temp
2014-Jul-26 15:23N 45°59' W 083°53'262 6.7
2014-Jul-25 00:16N 42°25' W 080°21'811.7
2014-Jul-24 23:33N 42°28' W 080°11'1211.6
2014-Jul-24 22:31N 42°33' W 079°56'47 1.1
2014-Jul-23 02:20N 43°07' W 079°12'16 2.6
2014-Jul-22 20:14N 42°52' W 079°15'710.0
2014-Jul-22 19:30N 42°46' W 079°22'1011.0
2014-Jul-22 18:33N 42°40' W 079°33'1111.1
2014-Jul-22 17:33N 42°33' W 079°46'1111.1
2014-Jul-22 16:32N 42°27' W 079°58'1110.9
2014-Jul-22 15:33N 42°23' W 080°12'1111.1
2014-Jul-22 14:33N 42°19' W 080°26'1111.0
2014-Jul-22 13:33N 42°16' W 080°40'2511.1
2014-Jul-22 11:16N 42°08' W 081°12'5611.2
2014-Jul-22 06:18N 41°50' W 082°23'226 8.7
2014-Jul-21 04:13N 45°32' W 083°21'1111.0
2014-Jul-21 03:10N 45°40' W 083°32'711.0
2014-Jul-21 02:32N 45°45' W 083°39'1111.0
2014-Jul-21 01:33N 45°53' W 083°49'10 9.8
2014-Jul-21 00:33N 46°02' W 083°56'11 9.3
2014-Jul-20 23:25N 46°10' W 084°05'  

Dump ship's entire track history